Estación Meteorológica Peña el Pijo (Robertgarden) [ 04/19/21 03:20:03 CEST ]

Fecha Hora Presion(HPa) Temp (°C) Humedad % Rocio (°C) Viento ( m/s) Direccion Lluvia 1Hora(mm) Lluvia 24H(mm) LLuvia Total(mm)
2021-Apr-05 01:09:33 1007.800 6.8 82 3.9 - N     89.61
2021-Apr-05 02:09:54 1007.500 6.1 84 3.6 - N     89.61
2021-Apr-05 03:10:21 1007.200 7.1 84 4.6 - N     89.61
2021-Apr-05 04:09:50 1006.900 6.5 86 4.3 - N     89.61
2021-Apr-05 05:09:49 1006.500 6.9 85 4.5 - N     89.61
2021-Apr-05 06:09:47 1006.500 6.2 86 4.0 - N     89.61
2021-Apr-05 07:09:42 1006.700 5.0 87 3.0 - N     89.61
2021-Apr-05 08:09:29 1006.900 3.9 87 1.9 - N     89.61
2021-Apr-05 09:10:12 1007.400 13.9 68 8.1 - N     89.61
2021-Apr-05 10:09:15 1007.400 20.1 48 8.7 - N     89.61
2021-Apr-05 11:09:17 1007.200 24.2 38 8.9 - N     89.61
2021-Apr-05 12:09:16 1007.600 16.9 50 6.4 - N     89.61
2021-Apr-05 13:09:25 1007.500 16.3 48 5.2 - N     89.61
2021-Apr-05 14:09:49 1006.900 18.6 40 4.7 - N     89.61
2021-Apr-05 15:09:28 1006.500 18.4 41 4.9 - N     89.61
2021-Apr-05 16:09:33 1005.800 21.8 35 5.6 - N     89.61
2021-Apr-05 17:09:43 1005.600 17.9 44 5.4 - N     89.61
2021-Apr-05 18:09:39 1005.600 19.1 48 7.8 - N     89.61
2021-Apr-05 19:09:46 1005.800 18.9 47 7.3 - N     89.61
2021-Apr-05 20:09:43 1006.300 14.9 60 7.2 - N     89.61
2021-Apr-05 21:09:26 1006.600 12.3 69 6.8 - N     89.61
2021-Apr-05 22:09:35 1007.400 10.2 75 5.9 - N     89.61
2021-Apr-05 23:09:37 1007.700 9.4 78 5.7 - N     89.61

Temperatura Máxima:24°    Temperatura Mínima:
Presión Máxima:1007.800 Hpa    Presión Mínima:1005.600 Hpa


Volver